Bramanville, New York
Current Conditions -  °F | °C
As of 12:55 AM on Sunday 26 Oct 2014 (Local Time) from KNY0 Reporting Station
Broken Clouds Broken Clouds  
Wind Chill: 47°   Ceiling: 5000
Heat Index: 47°   Visibility: 5mi
Dew Point: 46°   Wind: 3mph
Humidity: 93%   Direction: 300°WNW
Pressure: 29.51"   Gusts: NA
Location:  42.7023°N, 74.392°W
Report Text: KNY0 260455Z AUTO 30003KT 5SM SCT028 SCT038 BKN050 09/08 A2951 RMK AO2 T00850075
Loading
Personal Weather Stations






























Interactive Weather Map
Tropical Storm Tracking
New forecast layout! Learn more

10-Day Weather Forecast

Advertisements
Track Severe Weather on mobile